Time;durP1;ratioP1;P1;durP2;ratioP2;P2;SDS_P1;SDS_P2;PMS_P1;PMS_P2;Temp;Humidity;BMP_temperature;BMP_pressure;BME280_temperature;BME280_humidity;BME280_pressure;Samples;Min_cycle;Max_cycle;Signal;HPM_P1;HPM_P2
2023/11/10 00:00:36;;;;;;;1.65;1.25;;;7.20;99.90;;;;;;5131849;28;20485;-66
2023/11/10 00:03:01;;;;;;;2.42;1.05;;;7.20;99.90;;;;;;5130721;28;20112;-66
2023/11/10 00:05:29;;;;;;;1.70;1.10;;;7.20;99.90;;;;;;5113402;28;20095;-66
2023/11/10 00:07:56;;;;;;;2.10;1.08;;;7.20;99.90;;;;;;5130905;28;20046;-66
2023/11/10 00:10:22;;;;;;;1.48;0.95;;;7.10;99.90;;;;;;5132020;28;20046;-66
2023/11/10 00:12:47;;;;;;;2.50;1.35;;;7.10;99.90;;;;;;5130747;28;20059;-66
2023/11/10 00:15:13;;;;;;;2.55;1.33;;;7.10;99.90;;;;;;5132828;28;20016;-66
2023/11/10 00:17:39;;;;;;;1.45;1.35;;;7.10;99.90;;;;;;5131207;28;20042;-66
2023/11/10 00:20:07;;;;;;;3.78;1.70;;;7.10;99.90;;;;;;5130436;28;20695;-66
2023/11/10 00:22:33;;;;;;;3.92;1.60;;;7.00;99.90;;;;;;5131632;27;20028;-66
2023/11/10 00:25:00;;;;;;;1.75;1.35;;;7.00;99.90;;;;;;5133906;27;20034;-65
2023/11/10 00:27:26;;;;;;;4.45;1.40;;;7.00;99.90;;;;;;5133540;27;20109;-65
2023/11/10 00:29:52;;;;;;;3.30;1.25;;;7.00;99.90;;;;;;5129552;27;20594;-66
2023/11/10 00:32:19;;;;;;;2.47;1.40;;;7.00;99.90;;;;;;5135110;27;20031;-65
2023/11/10 00:34:49;;;;;;;1.88;1.35;;;7.00;99.90;;;;;;5122323;27;20023;-66
2023/11/10 00:37:14;;;;;;;1.98;1.15;;;7.00;99.90;;;;;;5125470;27;20110;-66
2023/11/10 00:39:40;;;;;;;1.52;1.00;;;7.00;99.90;;;;;;5134727;27;20532;-65
2023/11/10 00:42:05;;;;;;;3.22;1.58;;;7.00;99.90;;;;;;5134339;27;20608;-65
2023/11/10 00:44:31;;;;;;;1.23;1.13;;;6.90;99.90;;;;;;5134862;27;20081;-66
2023/11/10 00:46:57;;;;;;;2.60;1.08;;;6.90;99.90;;;;;;5134236;27;20360;-66
2023/11/10 00:49:22;;;;;;;5.47;0.82;;;6.80;99.90;;;;;;5134704;27;20050;-66
2023/11/10 00:51:48;;;;;;;3.60;0.98;;;6.80;99.90;;;;;;5134413;27;20019;-65
2023/11/10 00:54:15;;;;;;;1.02;0.65;;;6.80;99.90;;;;;;5134544;27;20434;-66
2023/11/10 00:56:41;;;;;;;1.38;0.60;;;6.70;99.90;;;;;;5134969;27;20019;-65
2023/11/10 00:59:07;;;;;;;1.05;0.68;;;6.80;99.90;;;;;;5133616;27;20026;-66
2023/11/10 01:01:36;;;;;;;2.25;0.80;;;6.70;99.90;;;;;;5128725;27;20023;-66
2023/11/10 01:04:03;;;;;;;1.77;0.70;;;6.70;99.90;;;;;;5133924;27;20034;-66
2023/11/10 01:06:28;;;;;;;2.17;0.57;;;6.70;99.90;;;;;;5134850;27;20034;-65
2023/11/10 01:08:57;;;;;;;1.23;0.60;;;6.60;99.90;;;;;;5115239;27;20305;-66
2023/11/10 01:11:23;;;;;;;1.25;0.70;;;6.60;99.90;;;;;;5134434;27;20093;-65
2023/11/10 01:13:48;;;;;;;1.20;0.73;;;6.60;99.90;;;;;;5133619;27;20016;-65
2023/11/10 01:16:14;;;;;;;0.70;0.55;;;6.60;99.90;;;;;;5134313;27;20064;-65
2023/11/10 01:18:40;;;;;;;1.15;0.50;;;6.50;99.90;;;;;;5122443;27;20088;-65
2023/11/10 01:21:07;;;;;;;2.05;0.70;;;6.50;99.90;;;;;;5131115;27;20029;-66
2023/11/10 01:23:33;;;;;;;1.40;0.50;;;6.50;99.90;;;;;;5134178;27;20035;-66
2023/11/10 01:25:58;;;;;;;0.43;0.43;;;6.50;99.90;;;;;;5133741;27;20728;-65
2023/11/10 01:28:24;;;;;;;0.77;0.60;;;6.50;99.90;;;;;;5133985;27;20054;-65
2023/11/10 01:30:51;;;;;;;0.32;0.32;;;6.50;99.90;;;;;;5126841;27;20047;-66
2023/11/10 01:33:17;;;;;;;0.40;0.40;;;6.50;99.90;;;;;;5133914;27;20025;-65
2023/11/10 01:35:42;;;;;;;0.50;0.30;;;6.60;99.90;;;;;;5104498;28;20094;-65
2023/11/10 01:38:09;;;;;;;2.42;0.43;;;6.60;99.90;;;;;;5130392;27;20051;-64
2023/11/10 01:40:39;;;;;;;0.68;0.68;;;6.50;99.90;;;;;;5133966;27;20019;-64
2023/11/10 01:43:08;;;;;;;0.57;0.55;;;6.60;99.90;;;;;;5132744;27;20027;-65
2023/11/10 01:45:34;;;;;;;1.47;0.40;;;6.60;99.90;;;;;;5133857;27;20031;-65
2023/11/10 01:47:59;;;;;;;0.52;0.38;;;6.60;99.90;;;;;;5132784;27;20371;-65
2023/11/10 01:50:25;;;;;;;0.45;0.32;;;6.60;99.90;;;;;;5134007;27;20042;-65
2023/11/10 01:52:52;;;;;;;2.72;0.57;;;6.60;99.90;;;;;;5114300;27;20172;-65
2023/11/10 01:55:18;;;;;;;0.68;0.40;;;6.70;99.90;;;;;;5115180;27;20019;-64
2023/11/10 01:57:46;;;;;;;0.77;0.40;;;6.80;99.90;;;;;;5126265;27;20110;-64
2023/11/10 02:00:13;;;;;;;0.25;0.25;;;6.80;99.90;;;;;;5132748;27;20459;-64
2023/11/10 02:02:38;;;;;;;1.65;0.20;;;6.80;99.90;;;;;;5133574;27;20027;-64
2023/11/10 02:05:07;;;;;;;0.45;0.30;;;6.70;99.90;;;;;;5132479;27;20852;-65
2023/11/10 02:07:33;;;;;;;0.90;0.38;;;6.70;99.90;;;;;;5133141;27;20095;-65
2023/11/10 02:09:59;;;;;;;0.60;0.52;;;6.70;99.90;;;;;;5132730;27;20050;-65
2023/11/10 02:12:24;;;;;;;0.30;0.20;;;6.80;99.90;;;;;;5134045;27;20019;-65
2023/11/10 02:14:50;;;;;;;0.57;0.28;;;6.90;99.90;;;;;;5129368;27;20582;-65
2023/11/10 02:17:16;;;;;;;2.47;0.60;;;6.90;99.90;;;;;;5128335;27;20092;-67
2023/11/10 02:19:41;;;;;;;0.52;0.50;;;7.00;99.90;;;;;;5132859;27;20068;-65
2023/11/10 02:22:07;;;;;;;1.25;0.32;;;7.00;99.90;;;;;;5132215;27;20019;-65
2023/11/10 02:24:35;;;;;;;2.00;0.45;;;7.00;99.90;;;;;;5132722;27;20023;-65
2023/11/10 02:27:01;;;;;;;0.40;0.40;;;7.00;99.90;;;;;;5132517;27;20019;-65
2023/11/10 02:29:26;;;;;;;0.57;0.50;;;7.10;99.90;;;;;;5132365;27;20023;-65
2023/11/10 02:31:54;;;;;;;0.50;0.50;;;7.10;99.90;;;;;;5131673;27;20463;-65
2023/11/10 02:34:20;;;;;;;2.33;0.50;;;7.10;99.90;;;;;;5114189;27;20019;-65
2023/11/10 02:36:45;;;;;;;1.17;0.57;;;7.10;99.90;;;;;;5132573;27;20028;-65
2023/11/10 02:39:11;;;;;;;0.38;0.38;;;7.10;99.90;;;;;;5131964;27;20084;-65
2023/11/10 02:41:37;;;;;;;0.68;0.65;;;7.10;99.90;;;;;;5132751;27;20058;-65
2023/11/10 02:44:02;;;;;;;0.60;0.60;;;7.20;99.90;;;;;;5131733;27;20094;-65
2023/11/10 02:46:28;;;;;;;2.45;0.60;;;7.10;99.90;;;;;;5131928;27;20023;-65
2023/11/10 02:48:54;;;;;;;0.82;0.43;;;7.20;99.90;;;;;;5131474;27;20056;-65
2023/11/10 02:51:20;;;;;;;1.55;0.68;;;7.20;99.90;;;;;;5132403;27;20023;-65
2023/11/10 02:53:45;;;;;;;0.57;0.57;;;7.20;99.90;;;;;;5131885;27;20052;-65
2023/11/10 02:56:11;;;;;;;2.13;0.50;;;7.20;99.90;;;;;;5132302;27;20091;-65
2023/11/10 02:58:36;;;;;;;1.40;0.43;;;7.20;99.90;;;;;;5132038;27;20478;-65
2023/11/10 03:01:02;;;;;;;1.15;0.60;;;7.20;99.90;;;;;;5132027;27;20023;-65
2023/11/10 03:03:28;;;;;;;1.33;0.82;;;7.20;99.90;;;;;;5131968;27;20035;-66
2023/11/10 03:05:56;;;;;;;1.23;0.50;;;7.20;99.90;;;;;;5131848;27;20037;-65
2023/11/10 03:08:21;;;;;;;1.38;0.60;;;7.10;99.90;;;;;;5131768;27;20058;-64
2023/11/10 03:10:48;;;;;;;1.35;0.70;;;7.10;99.90;;;;;;5120769;27;20044;-64
2023/11/10 03:13:14;;;;;;;1.45;0.60;;;7.10;99.90;;;;;;5131585;27;20119;-64
2023/11/10 03:15:40;;;;;;;1.77;0.52;;;7.00;99.90;;;;;;5132216;27;20019;-64
2023/11/10 03:18:09;;;;;;;0.43;0.40;;;7.00;99.90;;;;;;5110482;28;20051;-65
2023/11/10 03:20:34;;;;;;;0.60;0.40;;;7.00;99.90;;;;;;5111829;28;20054;-65
2023/11/10 03:23:00;;;;;;;1.10;0.38;;;7.00;99.90;;;;;;5111000;28;20043;-65
2023/11/10 03:25:25;;;;;;;0.55;0.40;;;6.90;99.90;;;;;;5111797;28;20368;-64
2023/11/10 03:27:51;;;;;;;0.30;0.20;;;6.90;99.90;;;;;;5110521;28;20029;-65
2023/11/10 03:30:17;;;;;;;0.32;0.30;;;6.90;99.90;;;;;;5111553;28;20486;-65
2023/11/10 03:32:42;;;;;;;0.20;0.20;;;6.90;99.90;;;;;;5111065;28;20084;-64
2023/11/10 03:35:08;;;;;;;0.30;0.20;;;6.90;99.90;;;;;;5110059;28;20250;-64
2023/11/10 03:37:34;;;;;;;0.75;0.30;;;6.90;99.90;;;;;;5111812;28;20094;-64
2023/11/10 03:40:01;;;;;;;1.65;0.10;;;6.90;99.90;;;;;;5110391;28;20023;-64
2023/11/10 03:42:26;;;;;;;0.60;0.30;;;7.00;99.90;;;;;;5111989;28;20027;-65
2023/11/10 03:44:52;;;;;;;1.88;0.20;;;6.90;99.90;;;;;;5110204;28;20095;-64
2023/11/10 03:47:18;;;;;;;0.52;0.52;;;7.00;99.90;;;;;;5111727;28;20098;-64
2023/11/10 03:49:44;;;;;;;0.73;0.43;;;7.00;99.90;;;;;;5104745;28;20401;-64
2023/11/10 03:52:09;;;;;;;0.10;0.10;;;7.00;99.90;;;;;;5110737;28;20047;-64
2023/11/10 03:54:35;;;;;;;0.80;0.20;;;7.00;99.90;;;;;;5111032;28;20065;-65
2023/11/10 03:57:00;;;;;;;0.47;0.20;;;7.00;99.90;;;;;;5111370;28;20023;-64
2023/11/10 03:59:26;;;;;;;0.15;0.15;;;7.00;99.90;;;;;;5110071;28;20059;-64
2023/11/10 04:01:51;;;;;;;1.15;0.20;;;6.90;99.90;;;;;;5098353;28;20027;-64
2023/11/10 04:04:17;;;;;;;0.30;0.20;;;6.90;99.90;;;;;;5107947;28;20501;-64
2023/11/10 04:06:43;;;;;;;0.98;0.30;;;6.90;99.90;;;;;;5109943;28;20030;-65
2023/11/10 04:09:10;;;;;;;1.95;0.20;;;6.90;99.90;;;;;;5113551;28;20859;-65
2023/11/10 04:11:35;;;;;;;0.20;0.10;;;6.90;99.90;;;;;;5105068;28;20039;-65
2023/11/10 04:14:01;;;;;;;2.33;0.30;;;6.90;99.90;;;;;;5112131;27;20547;-64
2023/11/10 04:16:27;;;;;;;1.48;0.80;;;6.90;99.90;;;;;;5121296;27;20536;-64
2023/11/10 04:18:53;;;;;;;0.10;0.10;;;7.00;99.90;;;;;;5127641;27;20368;-64
2023/11/10 04:21:23;;;;;;;0.28;0.15;;;7.00;99.90;;;;;;5134729;27;20476;-65
2023/11/10 04:23:49;;;;;;;2.25;0.38;;;7.00;99.90;;;;;;5132857;27;20027;-66
2023/11/10 04:26:14;;;;;;;1.05;0.20;;;7.00;99.90;;;;;;5135070;27;20030;-64
2023/11/10 04:28:42;;;;;;;1.02;0.20;;;7.00;99.90;;;;;;5130318;27;20031;-64
2023/11/10 04:31:10;;;;;;;0.90;0.20;;;7.10;99.90;;;;;;5121100;27;20180;-64
2023/11/10 04:33:39;;;;;;;1.85;0.20;;;7.10;99.90;;;;;;5133648;27;20076;-64
2023/11/10 04:36:06;;;;;;;0.10;0.10;;;7.10;99.90;;;;;;5134973;27;20226;-64
2023/11/10 04:38:32;;;;;;;1.35;0.20;;;7.10;99.90;;;;;;5134182;27;20079;-64
2023/11/10 04:40:59;;;;;;;1.95;0.30;;;7.10;99.90;;;;;;5134287;27;20058;-64
2023/11/10 04:43:25;;;;;;;0.20;0.20;;;7.20;99.90;;;;;;5133541;27;20031;-64
2023/11/10 04:45:51;;;;;;;0.20;0.10;;;7.20;99.90;;;;;;5134419;27;20019;-64
2023/11/10 04:48:16;;;;;;;1.50;0.10;;;7.20;99.90;;;;;;5134549;27;20023;-64
2023/11/10 04:50:42;;;;;;;0.57;0.28;;;7.30;99.90;;;;;;5126400;27;20019;-64
2023/11/10 04:53:08;;;;;;;1.08;0.10;;;7.30;99.90;;;;;;5133204;27;20058;-64
2023/11/10 04:55:33;;;;;;;0.50;0.15;;;7.30;99.90;;;;;;5125123;27;20064;-64
2023/11/10 04:57:59;;;;;;;1.15;0.10;;;7.30;99.90;;;;;;5133116;27;20011;-64
2023/11/10 05:00:25;;;;;;;1.55;0.10;;;7.40;99.90;;;;;;5133099;27;20456;-64
2023/11/10 05:02:53;;;;;;;0.15;0.10;;;7.40;99.90;;;;;;5132471;27;20015;-64
2023/11/10 05:05:20;;;;;;;0.55;0.10;;;7.30;99.90;;;;;;5132638;27;20368;-64
2023/11/10 05:07:46;;;;;;;0.10;0.10;;;7.30;99.90;;;;;;5134040;27;20019;-64
2023/11/10 05:10:12;;;;;;;0.25;0.10;;;7.30;99.90;;;;;;5127338;27;20015;-64
2023/11/10 05:12:39;;;;;;;0.20;0.20;;;7.30;99.90;;;;;;5133775;27;20031;-65
2023/11/10 05:15:06;;;;;;;0.00;0.00;;;7.30;99.90;;;;;;5129884;27;20015;-64
2023/11/10 05:17:36;;;;;;;0.00;0.00;;;7.30;99.90;;;;;;5130562;27;20111;-64
2023/11/10 05:20:03;;;;;;;0.35;0.20;;;7.30;99.90;;;;;;5129753;27;20030;-64
2023/11/10 05:22:29;;;;;;;1.90;0.10;;;7.20;99.90;;;;;;5133499;27;20034;-64
2023/11/10 05:24:55;;;;;;;0.20;0.10;;;7.20;99.90;;;;;;5132134;27;20023;-64
2023/11/10 05:27:21;;;;;;;1.55;0.10;;;7.20;99.90;;;;;;5133603;27;20022;-65
2023/11/10 05:29:47;;;;;;;0.10;0.10;;;7.20;99.90;;;;;;5130337;27;20014;-64
2023/11/10 05:32:14;;;;;;;0.63;0.10;;;7.20;99.90;;;;;;5129972;27;20471;-64
2023/11/10 05:34:40;;;;;;;0.47;0.10;;;7.20;99.90;;;;;;5130207;27;20023;-64
2023/11/10 05:37:10;;;;;;;0.10;0.10;;;7.10;99.90;;;;;;5132416;27;20202;-64
2023/11/10 05:39:36;;;;;;;0.47;0.30;;;7.00;99.90;;;;;;5128933;27;20039;-64
2023/11/10 05:42:01;;;;;;;0.10;0.10;;;6.90;99.90;;;;;;5132254;27;20023;-64
2023/11/10 05:44:27;;;;;;;0.52;0.10;;;6.80;99.90;;;;;;5126402;27;20460;-64
2023/11/10 05:46:52;;;;;;;0.40;0.40;;;6.80;99.90;;;;;;5129403;27;20103;-65
2023/11/10 05:49:18;;;;;;;0.43;0.20;;;6.70;99.90;;;;;;5128485;27;20341;-64
2023/11/10 05:51:44;;;;;;;0.30;0.20;;;6.70;99.90;;;;;;5133922;27;20015;-65
2023/11/10 05:54:10;;;;;;;0.15;0.15;;;6.60;99.90;;;;;;5128737;27;20364;-65
2023/11/10 05:56:37;;;;;;;2.58;0.10;;;6.60;99.90;;;;;;5130228;27;20508;-65
2023/11/10 05:59:03;;;;;;;0.17;0.17;;;6.60;99.90;;;;;;5129070;27;20023;-65
2023/11/10 06:01:28;;;;;;;0.30;0.30;;;6.50;99.90;;;;;;5133049;27;20102;-64
2023/11/10 06:03:56;;;;;;;0.10;0.10;;;6.50;99.90;;;;;;5131992;27;20023;-64
2023/11/10 06:06:24;;;;;;;0.38;0.10;;;6.40;99.90;;;;;;5133246;27;20080;-65
2023/11/10 06:08:50;;;;;;;0.52;0.38;;;6.50;99.90;;;;;;5131966;27;20058;-64
2023/11/10 06:11:23;;;;;;;0.98;0.47;;;6.40;99.90;;;;;;5131024;27;20042;-65
2023/11/10 06:13:49;;;;;;;1.05;0.30;;;6.50;99.90;;;;;;5124032;27;20478;-65
2023/11/10 06:16:16;;;;;;;1.70;0.25;;;6.50;99.90;;;;;;5131361;27;20138;-69
2023/11/10 06:18:42;;;;;;;0.08;0.08;;;6.50;99.90;;;;;;5132613;27;20026;-65
2023/11/10 06:21:09;;;;;;;0.13;0.10;;;6.60;99.90;;;;;;5127946;27;20031;-64
2023/11/10 06:23:34;;;;;;;1.60;0.30;;;6.60;99.90;;;;;;5132631;27;20057;-64
2023/11/10 06:26:00;;;;;;;0.30;0.30;;;6.60;99.90;;;;;;5119978;27;20058;-65
2023/11/10 06:28:26;;;;;;;1.40;0.20;;;6.60;99.90;;;;;;5132004;27;20023;-65
2023/11/10 06:30:52;;;;;;;1.88;0.17;;;6.60;99.90;;;;;;5127960;27;20031;-64
2023/11/10 06:33:18;;;;;;;1.65;0.20;;;6.60;99.90;;;;;;5132523;27;20054;-65
2023/11/10 06:35:43;;;;;;;0.55;0.10;;;6.60;99.90;;;;;;5123062;27;20096;-65
2023/11/10 06:38:09;;;;;;;0.10;0.00;;;6.60;99.90;;;;;;5131623;27;20730;-65
2023/11/10 06:40:35;;;;;;;0.55;0.20;;;6.60;99.90;;;;;;5130530;27;20023;-65
2023/11/10 06:43:03;;;;;;;0.22;0.22;;;6.70;99.90;;;;;;5131052;27;20030;-67
2023/11/10 06:45:28;;;;;;;0.40;0.20;;;6.70;99.90;;;;;;5125833;27;20062;-65
2023/11/10 06:47:54;;;;;;;1.00;0.20;;;6.70;99.90;;;;;;5133865;27;20109;-67
2023/11/10 06:50:19;;;;;;;0.30;0.10;;;6.80;99.90;;;;;;5130970;27;20098;-66
2023/11/10 06:52:45;;;;;;;2.88;0.17;;;6.80;99.90;;;;;;5131476;27;20405;-65
2023/11/10 06:55:13;;;;;;;0.95;0.32;;;6.80;99.90;;;;;;5111296;27;20076;-68
2023/11/10 06:57:39;;;;;;;0.17;0.10;;;6.80;99.90;;;;;;5130547;27;20046;-66
2023/11/10 07:00:09;;;;;;;1.17;0.10;;;6.80;99.90;;;;;;5130003;27;20023;-67
2023/11/10 07:02:35;;;;;;;3.50;0.50;;;6.90;99.90;;;;;;5132019;27;20477;-66
2023/11/10 07:05:00;;;;;;;0.35;0.22;;;6.90;99.90;;;;;;5130763;27;20038;-66
2023/11/10 07:07:26;;;;;;;0.47;0.20;;;6.90;99.90;;;;;;5131786;27;20478;-66
2023/11/10 07:09:53;;;;;;;2.17;0.10;;;6.80;99.90;;;;;;5130112;27;20051;-65
2023/11/10 07:12:18;;;;;;;0.98;0.15;;;6.80;99.90;;;;;;5131822;27;20522;-66
2023/11/10 07:14:44;;;;;;;0.40;0.10;;;6.70;99.90;;;;;;5121441;27;20023;-65
2023/11/10 07:17:14;;;;;;;0.30;0.20;;;6.60;99.90;;;;;;5126078;27;20042;-65
2023/11/10 07:19:39;;;;;;;0.45;0.20;;;6.60;99.90;;;;;;5131049;27;20361;-65
2023/11/10 07:22:05;;;;;;;2.05;0.22;;;6.60;99.90;;;;;;5131301;27;20030;-66
2023/11/10 07:24:30;;;;;;;2.25;0.50;;;6.50;99.90;;;;;;5111675;27;20341;-65
2023/11/10 07:26:56;;;;;;;1.60;0.20;;;6.50;99.90;;;;;;5124132;28;20026;-65
2023/11/10 07:29:22;;;;;;;1.27;0.30;;;6.50;99.90;;;;;;5131073;28;20023;-65
2023/11/10 07:31:48;;;;;;;0.85;0.50;;;6.40;99.90;;;;;;5130437;27;20034;-65
2023/11/10 07:34:14;;;;;;;0.35;0.20;;;6.50;99.90;;;;;;5135519;27;20026;-65
2023/11/10 07:36:40;;;;;;;0.52;0.20;;;6.40;99.90;;;;;;5130634;27;20419;-65
2023/11/10 07:39:06;;;;;;;0.98;0.20;;;6.40;99.90;;;;;;5134757;27;20027;-65
2023/11/10 07:41:34;;;;;;;1.48;0.30;;;6.40;99.90;;;;;;5131321;27;20340;-66
2023/11/10 07:44:00;;;;;;;2.10;0.30;;;6.50;99.90;;;;;;5134723;27;20023;-66
2023/11/10 07:46:27;;;;;;;3.55;0.43;;;6.50;99.90;;;;;;5132933;27;20031;-65
2023/11/10 07:48:53;;;;;;;2.70;0.20;;;6.60;99.90;;;;;;5126970;27;20537;-65
2023/11/10 07:51:19;;;;;;;0.28;0.20;;;6.80;99.90;;;;;;5127166;27;20098;-66
2023/11/10 07:53:44;;;;;;;0.30;0.25;;;6.90;99.90;;;;;;5135330;27;20019;-66
2023/11/10 07:56:10;;;;;;;1.10;0.30;;;7.00;99.90;;;;;;5134444;27;20023;-65
2023/11/10 07:58:36;;;;;;;1.30;0.50;;;7.10;99.90;;;;;;5128775;27;20027;-65
2023/11/10 08:01:01;;;;;;;0.35;0.22;;;7.20;99.90;;;;;;5114081;27;20031;-66
2023/11/10 08:03:27;;;;;;;0.65;0.40;;;7.20;99.90;;;;;;5123718;27;20023;-65
2023/11/10 08:05:53;;;;;;;0.68;0.40;;;7.30;99.90;;;;;;5129204;27;20019;-66
2023/11/10 08:08:19;;;;;;;2.17;0.20;;;7.40;99.90;;;;;;5134851;27;20015;-65
2023/11/10 08:10:45;;;;;;;0.38;0.30;;;7.50;99.90;;;;;;5126279;27;20034;-65
2023/11/10 08:13:11;;;;;;;1.35;0.30;;;7.50;99.90;;;;;;5133892;27;20793;-65
2023/11/10 08:15:36;;;;;;;0.52;0.20;;;7.50;99.90;;;;;;5129995;27;20055;-65
2023/11/10 08:18:02;;;;;;;1.80;0.50;;;7.60;99.90;;;;;;5113746;27;20469;-66
2023/11/10 08:20:28;;;;;;;0.22;0.20;;;7.60;99.90;;;;;;5103529;28;20032;-65
2023/11/10 08:22:53;;;;;;;2.00;0.45;;;7.60;99.90;;;;;;5110659;28;20035;-65
2023/11/10 08:25:19;;;;;;;1.35;0.30;;;7.70;99.90;;;;;;5112982;28;20361;-65
2023/11/10 08:27:44;;;;;;;1.35;0.30;;;7.80;99.90;;;;;;5114550;28;20023;-65
2023/11/10 08:30:11;;;;;;;0.98;0.30;;;7.80;99.90;;;;;;5108570;28;20052;-65
2023/11/10 08:32:37;;;;;;;0.30;0.30;;;7.90;99.90;;;;;;5113592;28;20106;-65
2023/11/10 08:35:03;;;;;;;0.60;0.40;;;8.00;99.90;;;;;;5112987;28;20059;-65
2023/11/10 08:37:29;;;;;;;1.27;0.20;;;8.10;99.90;;;;;;5111507;28;20051;-65
2023/11/10 08:39:55;;;;;;;0.77;0.25;;;8.20;99.90;;;;;;5105798;28;20448;-65
2023/11/10 08:42:21;;;;;;;0.55;0.30;;;8.30;99.90;;;;;;5114291;28;20021;-65
2023/11/10 08:44:47;;;;;;;0.55;0.35;;;8.40;99.90;;;;;;5112616;28;20032;-65
2023/11/10 08:47:14;;;;;;;1.55;0.40;;;8.50;99.90;;;;;;5094810;28;20041;-66
2023/11/10 08:49:39;;;;;;;1.38;0.60;;;8.60;99.90;;;;;;5104238;28;20523;-65
2023/11/10 08:52:05;;;;;;;1.17;0.45;;;8.60;99.90;;;;;;5113308;28;20138;-66
2023/11/10 08:54:33;;;;;;;0.70;0.40;;;8.70;99.90;;;;;;5111891;28;20024;-65
2023/11/10 08:56:59;;;;;;;0.77;0.22;;;8.80;99.90;;;;;;5113139;28;20496;-65
2023/11/10 08:59:25;;;;;;;0.52;0.35;;;8.90;99.90;;;;;;5113580;28;20477;-65
2023/11/10 09:01:52;;;;;;;0.85;0.40;;;9.10;99.90;;;;;;5109341;28;20036;-66
2023/11/10 09:04:18;;;;;;;0.90;0.40;;;9.30;99.90;;;;;;5112011;28;20024;-65
2023/11/10 09:06:43;;;;;;;0.20;0.20;;;9.40;99.90;;;;;;5112846;28;20084;-66
2023/11/10 09:09:09;;;;;;;0.47;0.45;;;9.60;99.90;;;;;;5111186;28;20023;-65
2023/11/10 09:11:35;;;;;;;0.55;0.20;;;9.80;99.90;;;;;;5113805;28;20505;-67
2023/11/10 09:14:01;;;;;;;0.20;0.20;;;9.90;99.90;;;;;;5112278;28;20072;-64
2023/11/10 09:16:28;;;;;;;0.82;0.32;;;10.00;99.90;;;;;;5113041;28;20048;-66
2023/11/10 09:18:53;;;;;;;0.65;0.15;;;10.10;99.90;;;;;;5105747;28;20023;-66
2023/11/10 09:21:21;;;;;;;0.65;0.40;;;10.10;99.90;;;;;;5111892;28;20028;-66
2023/11/10 09:23:47;;;;;;;0.32;0.10;;;10.10;99.90;;;;;;5112946;28;20100;-66
2023/11/10 09:26:12;;;;;;;1.13;0.20;;;10.10;99.90;;;;;;5105079;28;20102;-67
2023/11/10 09:28:38;;;;;;;0.52;0.30;;;10.20;99.90;;;;;;5113369;28;20039;-66
2023/11/10 09:31:04;;;;;;;0.60;0.30;;;10.30;99.90;;;;;;5112561;28;20023;-66
2023/11/10 09:33:29;;;;;;;0.38;0.10;;;10.40;99.90;;;;;;5112483;28;20353;-67
2023/11/10 09:35:55;;;;;;;0.55;0.20;;;10.30;99.90;;;;;;5112363;28;20365;-66
2023/11/10 09:38:21;;;;;;;0.15;0.15;;;10.30;99.90;;;;;;5109263;28;20011;-67
2023/11/10 09:40:47;;;;;;;0.63;0.57;;;10.20;99.90;;;;;;5112174;28;20030;-64
2023/11/10 09:43:16;;;;;;;0.28;0.28;;;10.30;99.90;;;;;;5112892;28;20039;-66
2023/11/10 09:45:52;;;;;;;1.10;0.20;;;10.40;99.90;;;;;;5112883;28;20031;-67
2023/11/10 09:48:19;;;;;;;0.20;0.20;;;10.60;99.90;;;;;;5113333;27;20023;-67
2023/11/10 09:50:48;;;;;;;0.70;0.22;;;10.60;99.90;;;;;;5110454;27;20027;-67
2023/11/10 09:53:15;;;;;;;4.90;0.32;;;10.60;99.90;;;;;;5108744;28;20070;-67
2023/11/10 09:55:43;;;;;;;0.82;0.30;;;10.60;99.90;;;;;;5110700;27;20089;-67
2023/11/10 09:58:11;;;;;;;0.52;0.30;;;10.60;99.90;;;;;;5118250;27;20102;-67
2023/11/10 10:00:38;;;;;;;0.43;0.32;;;10.50;99.90;;;;;;5112904;28;20027;-67
2023/11/10 10:03:05;;;;;;;2.42;0.43;;;10.30;99.90;;;;;;5114299;27;20367;-67
2023/11/10 10:05:30;;;;;;;0.32;0.20;;;10.20;99.90;;;;;;5112551;28;20025;-67
2023/11/10 10:07:56;;;;;;;3.30;0.30;;;10.10;99.90;;;;;;5111155;28;20095;-67
2023/11/10 10:10:24;;;;;;;7.93;0.75;;;10.00;99.90;;;;;;5112797;28;20406;-66
2023/11/10 10:12:51;;;;;;;1.83;0.25;;;10.00;99.90;;;;;;5111679;28;20038;-67
2023/11/10 10:15:31;;;;;;;0.75;0.15;;;9.90;99.90;;;;;;5095585;28;20088;-66
2023/11/10 10:18:09;;;;;;;0.43;0.20;;;9.70;99.90;;;;;;5110687;28;20046;-67
2023/11/10 10:20:35;;;;;;;0.80;0.20;;;9.60;99.90;;;;;;5103914;28;20024;-66
2023/11/10 10:23:01;;;;;;;1.08;0.30;;;9.40;99.90;;;;;;5101609;28;20031;-66
2023/11/10 10:25:27;;;;;;;2.65;0.43;;;9.40;99.90;;;;;;5111028;28;20516;-66
2023/11/10 10:27:53;;;;;;;1.45;0.28;;;9.30;99.90;;;;;;5096994;27;20034;-66
2023/11/10 10:30:19;;;;;;;0.85;0.20;;;9.30;99.90;;;;;;5101535;28;20027;-66
2023/11/10 10:32:46;;;;;;;0.55;0.20;;;9.10;99.90;;;;;;5105665;28;20039;-66
2023/11/10 10:35:12;;;;;;;1.10;0.40;;;9.00;99.90;;;;;;5111294;28;20023;-66
2023/11/10 10:37:41;;;;;;;1.90;0.55;;;8.90;99.90;;;;;;5100737;28;20106;-66
2023/11/10 10:40:09;;;;;;;1.23;0.30;;;8.80;99.90;;;;;;5111103;28;20080;-67
2023/11/10 10:42:36;;;;;;;2.10;0.32;;;8.90;99.90;;;;;;5106354;28;20069;-67
2023/11/10 10:45:06;;;;;;;1.25;0.35;;;9.00;99.90;;;;;;5110945;27;20051;-66
2023/11/10 10:47:38;;;;;;;1.47;0.50;;;9.20;99.90;;;;;;5107409;28;20061;-66
2023/11/10 10:50:06;;;;;;;0.93;0.22;;;9.40;99.90;;;;;;5110729;28;20289;-65
2023/11/10 10:52:33;;;;;;;0.93;0.30;;;9.60;99.90;;;;;;5093784;28;20432;-67
2023/11/10 10:55:00;;;;;;;4.30;0.50;;;9.80;99.90;;;;;;5110145;28;20072;-67
2023/11/10 10:57:26;;;;;;;1.70;0.47;;;9.90;99.90;;;;;;5106585;28;20027;-67
2023/11/10 10:59:54;;;;;;;0.70;0.45;;;9.90;99.90;;;;;;5106883;28;20368;-66
2023/11/10 11:02:22;;;;;;;2.83;0.40;;;10.00;99.90;;;;;;5109002;28;20035;-67
2023/11/10 11:04:53;;;;;;;2.55;0.47;;;10.00;99.90;;;;;;5110740;28;20031;-66
2023/11/10 11:07:30;;;;;;;0.50;0.20;;;10.00;99.90;;;;;;5109509;28;20053;-67
2023/11/10 11:10:14;;;;;;;1.63;0.45;;;10.00;99.90;;;;;;5102989;28;20020;-67
2023/11/10 11:13:07;;;;;;;2.72;0.43;;;10.00;99.90;;;;;;5106383;28;20055;-66
2023/11/10 11:15:50;;;;;;;3.67;0.40;;;10.00;99.90;;;;;;5109764;28;20023;-66
2023/11/10 11:18:50;;;;;;;2.33;0.30;;;10.10;99.90;;;;;;5111147;28;20042;-65
2023/11/10 11:21:17;;;;;;;1.08;0.40;;;10.20;99.90;;;;;;5110283;28;20055;-65
2023/11/10 11:23:43;;;;;;;1.30;0.45;;;10.30;99.90;;;;;;5110902;28;20061;-66
2023/11/10 11:26:08;;;;;;;1.15;0.55;;;10.40;99.90;;;;;;5110446;28;20566;-66
2023/11/10 11:28:36;;;;;;;0.85;0.57;;;10.50;99.90;;;;;;5111341;28;20140;-65
2023/11/10 11:31:08;;;;;;;1.05;0.35;;;10.70;99.90;;;;;;5110852;28;20020;-67
2023/11/10 11:33:42;;;;;;;0.28;0.20;;;10.80;99.90;;;;;;5111110;28;20035;-70
2023/11/10 11:36:12;;;;;;;46.25;17.33;;;10.90;99.90;;;;;;5110661;28;20483;-69
2023/11/10 11:38:37;;;;;;;6.03;1.50;;;11.00;99.90;;;;;;5111168;28;20039;-68
2023/11/10 11:41:04;;;;;;;45.42;18.48;;;11.00;99.90;;;;;;5110513;28;20051;-70
2023/11/10 11:43:32;;;;;;;15.00;5.30;;;11.00;99.90;;;;;;5110876;28;20024;-66
2023/11/10 11:45:58;;;;;;;2.13;0.90;;;11.00;99.90;;;;;;5110477;28;20517;-67
2023/11/10 11:48:24;;;;;;;4.15;0.90;;;11.00;99.90;;;;;;5111305;28;20020;-66
2023/11/10 11:50:55;;;;;;;2.25;0.50;;;10.90;99.90;;;;;;5110537;28;20069;-66
2023/11/10 11:53:24;;;;;;;0.55;0.20;;;10.90;99.90;;;;;;5110732;28;20047;-72
2023/11/10 11:55:55;;;;;;;0.70;0.30;;;10.90;99.90;;;;;;5110923;28;20022;-66
2023/11/10 11:58:22;;;;;;;1.73;0.50;;;11.00;99.90;;;;;;5111098;28;20452;-66
2023/11/10 12:00:48;;;;;;;0.90;0.30;;;11.10;99.90;;;;;;5108772;28;20055;-67
2023/11/10 12:03:14;;;;;;;1.05;0.30;;;11.20;99.90;;;;;;5097390;28;20055;-66
2023/11/10 12:05:43;;;;;;;0.63;0.32;;;11.40;99.90;;;;;;5110437;28;20353;-66
2023/11/10 12:08:10;;;;;;;3.03;0.35;;;11.40;99.90;;;;;;5110075;28;20020;-66
2023/11/10 12:10:36;;;;;;;2.90;0.40;;;11.50;99.90;;;;;;5117756;28;20032;-66
2023/11/10 12:13:02;;;;;;;1.38;0.45;;;11.60;99.90;;;;;;5110186;28;20353;-66
2023/11/10 12:15:29;;;;;;;2.05;0.40;;;11.70;99.90;;;;;;5098865;28;20031;-66
2023/11/10 12:17:55;;;;;;;2.70;0.52;;;11.70;99.90;;;;;;5120694;28;20043;-66
2023/11/10 12:20:23;;;;;;;2.33;0.40;;;11.70;99.90;;;;;;5135108;27;20364;-66
2023/11/10 12:22:55;;;;;;;2.67;0.50;;;11.70;99.90;;;;;;5126941;27;20035;-66
2023/11/10 12:25:22;;;;;;;0.73;0.28;;;11.70;99.90;;;;;;5133903;27;20459;-67
2023/11/10 12:27:50;;;;;;;1.20;0.30;;;11.60;99.90;;;;;;5141812;27;20042;-66
2023/11/10 12:30:16;;;;;;;2.30;0.40;;;11.60;99.90;;;;;;5134690;27;20018;-66
2023/11/10 12:32:42;;;;;;;2.88;0.43;;;11.50;99.90;;;;;;5135080;27;20031;-66
2023/11/10 12:35:12;;;;;;;2.97;0.60;;;11.40;99.90;;;;;;5129316;27;20109;-66
2023/11/10 12:37:37;;;;;;;1.35;0.40;;;11.30;99.90;;;;;;5134476;27;20055;-66
2023/11/10 12:40:16;;;;;;;1.08;0.30;;;11.30;99.90;;;;;;5133785;27;20100;-66
2023/11/10 12:42:42;;;;;;;1.27;0.30;;;11.40;99.90;;;;;;5134765;27;20027;-66
2023/11/10 12:45:11;;;;;;;1.77;0.52;;;11.60;99.90;;;;;;5128970;27;20635;-67
2023/11/10 12:47:38;;;;;;;0.40;0.30;;;11.80;99.90;;;;;;5130888;27;20340;-66
2023/11/10 12:50:10;;;;;;;0.63;0.50;;;12.30;99.90;;;;;;5133245;27;20064;-66
2023/11/10 12:52:36;;;;;;;1.10;0.40;;;12.60;99.90;;;;;;5134079;27;20365;-66